sensor_id;sensor_type;location;lat;lon;timestamp;temperature;humidity
3108;DHT22;1564;49.234;8.554;2023-08-06T00:00:22;13.40;1.00
3108;DHT22;1564;49.234;8.554;2023-08-06T00:02:49;13.50;1.00
3108;DHT22;1564;49.234;8.554;2023-08-06T00:05:15;13.60;1.00
3108;DHT22;1564;49.234;8.554;2023-08-06T00:07:44;13.50;1.00
3108;DHT22;1564;49.234;8.554;2023-08-06T00:10:11;13.50;1.00
3108;DHT22;1564;49.234;8.554;2023-08-06T00:12:37;13.60;1.00
3108;DHT22;1564;49.234;8.554;2023-08-06T00:15:03;13.60;1.00
3108;DHT22;1564;49.234;8.554;2023-08-06T00:17:29;13.70;1.00
3108;DHT22;1564;49.234;8.554;2023-08-06T00:19:54;13.70;1.00
3108;DHT22;1564;49.234;8.554;2023-08-06T00:22:20;13.70;1.00
3108;DHT22;1564;49.234;8.554;2023-08-06T00:24:46;13.60;1.00
3108;DHT22;1564;49.234;8.554;2023-08-06T00:27:12;13.60;1.00
3108;DHT22;1564;49.234;8.554;2023-08-06T00:29:38;13.70;1.00
3108;DHT22;1564;49.234;8.554;2023-08-06T00:32:03;13.70;1.00
3108;DHT22;1564;49.234;8.554;2023-08-06T00:34:29;13.80;1.00
3108;DHT22;1564;49.234;8.554;2023-08-06T00:36:55;13.90;1.00
3108;DHT22;1564;49.234;8.554;2023-08-06T00:39:21;14.00;1.00
3108;DHT22;1564;49.234;8.554;2023-08-06T00:41:47;14.00;1.00
3108;DHT22;1564;49.234;8.554;2023-08-06T00:44:12;14.10;1.00
3108;DHT22;1564;49.234;8.554;2023-08-06T00:46:38;14.10;1.00
3108;DHT22;1564;49.234;8.554;2023-08-06T00:49:05;14.10;1.00
3108;DHT22;1564;49.234;8.554;2023-08-06T00:51:31;14.10;1.00
3108;DHT22;1564;49.234;8.554;2023-08-06T00:53:58;14.20;99.90
3108;DHT22;1564;49.234;8.554;2023-08-06T00:56:24;14.20;99.90
3108;DHT22;1564;49.234;8.554;2023-08-06T00:58:50;14.30;99.90
3108;DHT22;1564;49.234;8.554;2023-08-06T01:01:16;14.30;4.00
3108;DHT22;1564;49.234;8.554;2023-08-06T01:03:42;14.40;1.00
3108;DHT22;1564;49.234;8.554;2023-08-06T01:06:08;14.40;1.00
3108;DHT22;1564;49.234;8.554;2023-08-06T01:08:54;14.50;99.90
3108;DHT22;1564;49.234;8.554;2023-08-06T01:13:05;14.60;1.00
3108;DHT22;1564;49.234;8.554;2023-08-06T01:15:38;14.80;99.90
3108;DHT22;1564;49.234;8.554;2023-08-06T01:18:07;14.80;99.90
3108;DHT22;1564;49.234;8.554;2023-08-06T01:20:33;15.00;99.90
3108;DHT22;1564;49.234;8.554;2023-08-06T01:22:58;14.90;99.90
3108;DHT22;1564;49.234;8.554;2023-08-06T01:25:35;14.90;99.90
3108;DHT22;1564;49.234;8.554;2023-08-06T01:28:18;14.90;99.90
3108;DHT22;1564;49.234;8.554;2023-08-06T01:30:47;15.00;99.90
3108;DHT22;1564;49.234;8.554;2023-08-06T01:33:17;15.20;52.60
3108;DHT22;1564;49.234;8.554;2023-08-06T01:35:46;15.10;62.60
3108;DHT22;1564;49.234;8.554;2023-08-06T01:38:13;14.90;95.60
3108;DHT22;1564;49.234;8.554;2023-08-06T01:40:39;14.80;99.90
3108;DHT22;1564;49.234;8.554;2023-08-06T01:43:05;14.90;96.00
3108;DHT22;1564;49.234;8.554;2023-08-06T01:45:30;15.00;84.20
3108;DHT22;1564;49.234;8.554;2023-08-06T01:47:56;14.90;94.90
3108;DHT22;1564;49.234;8.554;2023-08-06T01:50:22;14.90;87.70
3108;DHT22;1564;49.234;8.554;2023-08-06T01:52:48;15.00;82.40
3108;DHT22;1564;49.234;8.554;2023-08-06T01:55:13;15.00;91.10
3108;DHT22;1564;49.234;8.554;2023-08-06T01:57:39;15.00;99.90
3108;DHT22;1564;49.234;8.554;2023-08-06T02:00:06;14.90;94.20
3108;DHT22;1564;49.234;8.554;2023-08-06T02:02:33;14.80;99.90
3108;DHT22;1564;49.234;8.554;2023-08-06T02:04:59;14.90;70.20
3108;DHT22;1564;49.234;8.554;2023-08-06T02:07:25;15.00;46.30
3108;DHT22;1564;49.234;8.554;2023-08-06T02:09:51;15.00;68.10
3108;DHT22;1564;49.234;8.554;2023-08-06T02:12:16;14.90;74.80
3108;DHT22;1564;49.234;8.554;2023-08-06T02:14:42;14.90;64.90
3108;DHT22;1564;49.234;8.554;2023-08-06T02:17:08;15.00;55.70
3108;DHT22;1564;49.234;8.554;2023-08-06T02:19:34;15.10;39.00
3108;DHT22;1564;49.234;8.554;2023-08-06T02:21:59;15.00;32.70
3108;DHT22;1564;49.234;8.554;2023-08-06T02:24:25;15.00;47.10
3108;DHT22;1564;49.234;8.554;2023-08-06T02:26:51;14.90;61.40
3108;DHT22;1564;49.234;8.554;2023-08-06T02:29:20;14.80;79.60
3108;DHT22;1564;49.234;8.554;2023-08-06T02:31:46;14.80;84.50
3108;DHT22;1564;49.234;8.554;2023-08-06T02:34:12;14.80;86.50
3108;DHT22;1564;49.234;8.554;2023-08-06T02:36:38;14.80;80.40
3108;DHT22;1564;49.234;8.554;2023-08-06T02:39:03;14.70;92.90
3108;DHT22;1564;49.234;8.554;2023-08-06T02:41:29;14.80;78.30
3108;DHT22;1564;49.234;8.554;2023-08-06T02:43:55;14.70;86.50
3108;DHT22;1564;49.234;8.554;2023-08-06T02:46:21;14.80;76.70
3108;DHT22;1564;49.234;8.554;2023-08-06T02:48:46;14.90;52.80
3108;DHT22;1564;49.234;8.554;2023-08-06T02:51:12;14.80;54.60
3108;DHT22;1564;49.234;8.554;2023-08-06T02:53:38;14.90;38.30
3108;DHT22;1564;49.234;8.554;2023-08-06T02:56:04;14.70;54.60
3108;DHT22;1564;49.234;8.554;2023-08-06T02:58:30;14.80;52.00
3108;DHT22;1564;49.234;8.554;2023-08-06T03:01:03;14.90;39.40
3108;DHT22;1564;49.234;8.554;2023-08-06T03:03:32;15.00;28.60
3108;DHT22;1564;49.234;8.554;2023-08-06T03:05:58;15.00;17.40
3108;DHT22;1564;49.234;8.554;2023-08-06T03:08:24;15.00;9.10
3108;DHT22;1564;49.234;8.554;2023-08-06T03:10:50;15.20;1.90
3108;DHT22;1564;49.234;8.554;2023-08-06T03:13:19;15.20;1.00
3108;DHT22;1564;49.234;8.554;2023-08-06T03:15:55;15.20;1.00
3108;DHT22;1564;49.234;8.554;2023-08-06T03:18:22;15.30;1.00
3108;DHT22;1564;49.234;8.554;2023-08-06T03:20:48;15.30;1.00
3108;DHT22;1564;49.234;8.554;2023-08-06T03:23:14;15.40;1.00
3108;DHT22;1564;49.234;8.554;2023-08-06T03:25:39;15.40;1.00
3108;DHT22;1564;49.234;8.554;2023-08-06T03:28:05;15.40;1.00
3108;DHT22;1564;49.234;8.554;2023-08-06T03:30:31;15.40;1.00
3108;DHT22;1564;49.234;8.554;2023-08-06T03:32:57;15.40;1.00
3108;DHT22;1564;49.234;8.554;2023-08-06T03:35:22;15.30;1.00
3108;DHT22;1564;49.234;8.554;2023-08-06T03:37:48;15.20;1.00
3108;DHT22;1564;49.234;8.554;2023-08-06T03:40:15;15.30;1.00
3108;DHT22;1564;49.234;8.554;2023-08-06T03:42:41;15.30;1.00
3108;DHT22;1564;49.234;8.554;2023-08-06T03:45:08;15.20;1.00
3108;DHT22;1564;49.234;8.554;2023-08-06T03:47:34;15.20;1.00
3108;DHT22;1564;49.234;8.554;2023-08-06T03:50:00;15.20;1.00
3108;DHT22;1564;49.234;8.554;2023-08-06T03:52:26;15.10;1.00
3108;DHT22;1564;49.234;8.554;2023-08-06T03:54:51;15.10;1.00
3108;DHT22;1564;49.234;8.554;2023-08-06T03:57:17;15.10;1.00
3108;DHT22;1564;49.234;8.554;2023-08-06T03:59:43;15.10;1.00
3108;DHT22;1564;49.234;8.554;2023-08-06T04:02:09;15.00;1.00
3108;DHT22;1564;49.234;8.554;2023-08-06T04:04:35;15.00;1.00
3108;DHT22;1564;49.234;8.554;2023-08-06T04:07:00;15.00;1.00
3108;DHT22;1564;49.234;8.554;2023-08-06T04:09:28;15.00;1.00
3108;DHT22;1564;49.234;8.554;2023-08-06T04:11:54;14.90;1.00
3108;DHT22;1564;49.234;8.554;2023-08-06T04:14:21;14.80;1.00
3108;DHT22;1564;49.234;8.554;2023-08-06T04:16:46;14.50;1.00
3108;DHT22;1564;49.234;8.554;2023-08-06T04:19:12;14.50;5.50
3108;DHT22;1564;49.234;8.554;2023-08-06T04:21:38;14.40;11.30
3108;DHT22;1564;49.234;8.554;2023-08-06T04:24:04;14.40;13.40
3108;DHT22;1564;49.234;8.554;2023-08-06T04:26:30;14.40;19.20
3108;DHT22;1564;49.234;8.554;2023-08-06T04:28:55;14.40;14.10
3108;DHT22;1564;49.234;8.554;2023-08-06T04:31:21;14.40;10.70
3108;DHT22;1564;49.234;8.554;2023-08-06T04:33:47;14.50;14.00
3108;DHT22;1564;49.234;8.554;2023-08-06T04:36:13;14.40;11.40
3108;DHT22;1564;49.234;8.554;2023-08-06T04:38:39;14.40;8.30
3108;DHT22;1564;49.234;8.554;2023-08-06T04:41:06;14.50;1.00
3108;DHT22;1564;49.234;8.554;2023-08-06T04:43:32;14.50;1.00
3108;DHT22;1564;49.234;8.554;2023-08-06T04:45:58;14.50;1.00
3108;DHT22;1564;49.234;8.554;2023-08-06T04:48:24;14.50;1.00
3108;DHT22;1564;49.234;8.554;2023-08-06T04:50:50;14.70;1.00
3108;DHT22;1564;49.234;8.554;2023-08-06T04:53:16;14.80;1.00
3108;DHT22;1564;49.234;8.554;2023-08-06T04:55:42;14.80;1.00
3108;DHT22;1564;49.234;8.554;2023-08-06T04:58:12;14.80;1.00
3108;DHT22;1564;49.234;8.554;2023-08-06T05:00:38;14.80;1.00
3108;DHT22;1564;49.234;8.554;2023-08-06T05:03:05;14.80;1.00
3108;DHT22;1564;49.234;8.554;2023-08-06T05:05:31;14.80;1.00
3108;DHT22;1564;49.234;8.554;2023-08-06T05:07:57;14.90;1.00
3108;DHT22;1564;49.234;8.554;2023-08-06T05:10:26;14.90;1.00
3108;DHT22;1564;49.234;8.554;2023-08-06T05:12:51;14.90;1.00
3108;DHT22;1564;49.234;8.554;2023-08-06T05:15:17;14.50;20.40
3108;DHT22;1564;49.234;8.554;2023-08-06T05:17:43;14.30;48.70
3108;DHT22;1564;49.234;8.554;2023-08-06T05:20:10;14.30;51.50
3108;DHT22;1564;49.234;8.554;2023-08-06T05:22:36;14.10;99.90
3108;DHT22;1564;49.234;8.554;2023-08-06T05:25:02;13.90;99.90
3108;DHT22;1564;49.234;8.554;2023-08-06T05:27:28;13.80;1.00
3108;DHT22;1564;49.234;8.554;2023-08-06T05:29:55;13.80;1.00
3108;DHT22;1564;49.234;8.554;2023-08-06T05:32:22;13.60;99.90
3108;DHT22;1564;49.234;8.554;2023-08-06T05:34:48;13.60;1.00
3108;DHT22;1564;49.234;8.554;2023-08-06T05:37:13;13.60;99.90
3108;DHT22;1564;49.234;8.554;2023-08-06T05:39:39;13.60;99.90
3108;DHT22;1564;49.234;8.554;2023-08-06T05:42:05;13.60;99.90
3108;DHT22;1564;49.234;8.554;2023-08-06T05:44:31;13.60;1.00
3108;DHT22;1564;49.234;8.554;2023-08-06T05:46:57;13.70;1.00
3108;DHT22;1564;49.234;8.554;2023-08-06T05:49:23;13.60;99.90
3108;DHT22;1564;49.234;8.554;2023-08-06T05:51:48;13.60;1.00
3108;DHT22;1564;49.234;8.554;2023-08-06T05:54:14;13.70;1.00
3108;DHT22;1564;49.234;8.554;2023-08-06T05:56:40;13.60;1.00
3108;DHT22;1564;49.234;8.554;2023-08-06T05:59:06;13.60;99.90
3108;DHT22;1564;49.234;8.554;2023-08-06T06:01:31;13.60;99.90
3108;DHT22;1564;49.234;8.554;2023-08-06T06:03:57;13.70;1.00
3108;DHT22;1564;49.234;8.554;2023-08-06T06:06:23;13.80;99.90
3108;DHT22;1564;49.234;8.554;2023-08-06T06:08:49;13.90;1.00
3108;DHT22;1564;49.234;8.554;2023-08-06T06:11:14;14.00;1.00
3108;DHT22;1564;49.234;8.554;2023-08-06T06:13:40;14.10;1.00
3108;DHT22;1564;49.234;8.554;2023-08-06T06:16:06;14.20;99.90
3108;DHT22;1564;49.234;8.554;2023-08-06T06:18:32;14.30;99.90
3108;DHT22;1564;49.234;8.554;2023-08-06T06:20:57;14.40;99.90
3108;DHT22;1564;49.234;8.554;2023-08-06T06:23:24;14.40;99.90
3108;DHT22;1564;49.234;8.554;2023-08-06T06:25:50;14.50;99.90
3108;DHT22;1564;49.234;8.554;2023-08-06T06:28:18;14.50;99.90
3108;DHT22;1564;49.234;8.554;2023-08-06T06:30:43;14.50;99.90
3108;DHT22;1564;49.234;8.554;2023-08-06T06:33:09;14.70;99.90
3108;DHT22;1564;49.234;8.554;2023-08-06T06:35:36;14.70;99.90
3108;DHT22;1564;49.234;8.554;2023-08-06T06:38:02;14.70;98.00
3108;DHT22;1564;49.234;8.554;2023-08-06T06:40:28;14.70;55.90
3108;DHT22;1564;49.234;8.554;2023-08-06T06:42:54;14.80;81.00
3108;DHT22;1564;49.234;8.554;2023-08-06T06:45:19;14.90;91.20
3108;DHT22;1564;49.234;8.554;2023-08-06T06:47:45;15.00;60.80
3108;DHT22;1564;49.234;8.554;2023-08-06T06:50:11;15.00;26.70
3108;DHT22;1564;49.234;8.554;2023-08-06T06:52:37;15.00;48.40
3108;DHT22;1564;49.234;8.554;2023-08-06T06:55:03;15.00;30.00
3108;DHT22;1564;49.234;8.554;2023-08-06T06:57:29;15.10;44.50
3108;DHT22;1564;49.234;8.554;2023-08-06T06:59:55;15.10;11.80
3108;DHT22;1564;49.234;8.554;2023-08-06T07:02:20;15.20;3.00
3108;DHT22;1564;49.234;8.554;2023-08-06T07:04:46;15.10;12.30
3108;DHT22;1564;49.234;8.554;2023-08-06T07:07:12;14.90;56.70
3108;DHT22;1564;49.234;8.554;2023-08-06T07:09:38;14.80;63.00
3108;DHT22;1564;49.234;8.554;2023-08-06T07:12:04;14.70;82.30
3108;DHT22;1564;49.234;8.554;2023-08-06T07:14:30;14.70;99.60
3108;DHT22;1564;49.234;8.554;2023-08-06T07:16:56;14.80;99.90
3108;DHT22;1564;49.234;8.554;2023-08-06T07:19:22;14.80;90.40
3108;DHT22;1564;49.234;8.554;2023-08-06T07:21:47;14.90;82.50
3108;DHT22;1564;49.234;8.554;2023-08-06T07:24:13;14.90;59.60
3108;DHT22;1564;49.234;8.554;2023-08-06T07:26:39;15.20;51.10
3108;DHT22;1564;49.234;8.554;2023-08-06T07:29:05;15.10;21.30
3108;DHT22;1564;49.234;8.554;2023-08-06T07:31:30;15.20;11.60
3108;DHT22;1564;49.234;8.554;2023-08-06T07:33:56;15.30;11.90
3108;DHT22;1564;49.234;8.554;2023-08-06T07:36:22;15.30;19.60
3108;DHT22;1564;49.234;8.554;2023-08-06T07:38:48;15.30;19.10
3108;DHT22;1564;49.234;8.554;2023-08-06T07:41:17;15.20;21.00
3108;DHT22;1564;49.234;8.554;2023-08-06T07:43:42;15.10;23.20
3108;DHT22;1564;49.234;8.554;2023-08-06T07:46:08;15.20;33.10
3108;DHT22;1564;49.234;8.554;2023-08-06T07:48:34;15.20;21.10
3108;DHT22;1564;49.234;8.554;2023-08-06T07:51:00;15.20;36.80
3108;DHT22;1564;49.234;8.554;2023-08-06T07:53:26;15.20;46.40
3108;DHT22;1564;49.234;8.554;2023-08-06T07:55:53;15.00;79.40
3108;DHT22;1564;49.234;8.554;2023-08-06T07:58:20;14.50;99.90
3108;DHT22;1564;49.234;8.554;2023-08-06T08:00:46;14.50;1.00
3108;DHT22;1564;49.234;8.554;2023-08-06T08:03:15;14.50;1.00
3108;DHT22;1564;49.234;8.554;2023-08-06T08:05:42;14.40;1.00
3108;DHT22;1564;49.234;8.554;2023-08-06T08:08:08;14.50;1.00
3108;DHT22;1564;49.234;8.554;2023-08-06T08:10:34;14.50;99.90
3108;DHT22;1564;49.234;8.554;2023-08-06T08:13:03;14.30;99.90
3108;DHT22;1564;49.234;8.554;2023-08-06T08:15:30;14.40;1.00
3108;DHT22;1564;49.234;8.554;2023-08-06T08:17:56;14.40;1.00
3108;DHT22;1564;49.234;8.554;2023-08-06T08:20:22;14.70;1.00
3108;DHT22;1564;49.234;8.554;2023-08-06T08:22:48;14.90;1.00
3108;DHT22;1564;49.234;8.554;2023-08-06T08:25:15;14.70;99.90
3108;DHT22;1564;49.234;8.554;2023-08-06T08:27:41;14.90;99.90
3108;DHT22;1564;49.234;8.554;2023-08-06T08:30:07;14.90;99.90
3108;DHT22;1564;49.234;8.554;2023-08-06T08:32:33;15.00;1.00
3108;DHT22;1564;49.234;8.554;2023-08-06T08:34:58;14.80;1.00
3108;DHT22;1564;49.234;8.554;2023-08-06T08:37:24;14.90;99.90
3108;DHT22;1564;49.234;8.554;2023-08-06T08:39:50;14.90;99.90
3108;DHT22;1564;49.234;8.554;2023-08-06T08:42:16;14.90;1.00
3108;DHT22;1564;49.234;8.554;2023-08-06T08:44:42;15.00;99.90
3108;DHT22;1564;49.234;8.554;2023-08-06T08:47:10;15.30;1.00
3108;DHT22;1564;49.234;8.554;2023-08-06T08:49:37;15.20;18.50
3108;DHT22;1564;49.234;8.554;2023-08-06T08:52:03;15.40;1.00
3108;DHT22;1564;49.234;8.554;2023-08-06T08:54:33;15.40;99.90
3108;DHT22;1564;49.234;8.554;2023-08-06T08:56:59;15.50;1.00
3108;DHT22;1564;49.234;8.554;2023-08-06T08:59:26;15.40;99.90
3108;DHT22;1564;49.234;8.554;2023-08-06T09:01:52;15.50;1.00
3108;DHT22;1564;49.234;8.554;2023-08-06T09:04:19;15.50;1.00
3108;DHT22;1564;49.234;8.554;2023-08-06T09:06:48;15.50;1.00
3108;DHT22;1564;49.234;8.554;2023-08-06T09:09:21;15.50;99.90
3108;DHT22;1564;49.234;8.554;2023-08-06T09:11:49;15.50;99.90
3108;DHT22;1564;49.234;8.554;2023-08-06T09:14:16;15.90;99.90
3108;DHT22;1564;49.234;8.554;2023-08-06T09:16:42;16.10;99.90
3108;DHT22;1564;49.234;8.554;2023-08-06T09:19:13;16.70;99.90
3108;DHT22;1564;49.234;8.554;2023-08-06T09:21:41;16.80;99.90
3108;DHT22;1564;49.234;8.554;2023-08-06T09:24:08;16.80;99.90
3108;DHT22;1564;49.234;8.554;2023-08-06T09:26:35;16.70;81.20
3108;DHT22;1564;49.234;8.554;2023-08-06T09:29:01;16.50;87.00
3108;DHT22;1564;49.234;8.554;2023-08-06T09:31:48;16.40;99.90
3108;DHT22;1564;49.234;8.554;2023-08-06T09:34:22;16.30;68.10
3108;DHT22;1564;49.234;8.554;2023-08-06T09:36:50;16.40;96.20
3108;DHT22;1564;49.234;8.554;2023-08-06T09:39:29;16.20;55.60
3108;DHT22;1564;49.234;8.554;2023-08-06T09:41:57;15.80;95.10
3108;DHT22;1564;49.234;8.554;2023-08-06T09:44:26;15.40;99.90
3108;DHT22;1564;49.234;8.554;2023-08-06T09:46:53;15.40;99.90
3108;DHT22;1564;49.234;8.554;2023-08-06T09:49:42;15.40;99.90
3108;DHT22;1564;49.234;8.554;2023-08-06T09:52:12;15.30;99.90
3108;DHT22;1564;49.234;8.554;2023-08-06T09:54:38;15.30;99.90
3108;DHT22;1564;49.234;8.554;2023-08-06T09:57:05;15.40;99.90
3108;DHT22;1564;49.234;8.554;2023-08-06T09:59:32;15.40;99.90
3108;DHT22;1564;49.234;8.554;2023-08-06T10:01:58;15.20;99.90
3108;DHT22;1564;49.234;8.554;2023-08-06T10:04:25;15.10;1.00
3108;DHT22;1564;49.234;8.554;2023-08-06T10:06:57;15.10;1.00
3108;DHT22;1564;49.234;8.554;2023-08-06T10:09:24;14.90;1.00
3108;DHT22;1564;49.234;8.554;2023-08-06T10:11:51;15.00;99.90
3108;DHT22;1564;49.234;8.554;2023-08-06T10:14:24;15.00;1.00
3108;DHT22;1564;49.234;8.554;2023-08-06T10:16:51;15.10;99.90
3108;DHT22;1564;49.234;8.554;2023-08-06T10:19:18;15.10;99.90
3108;DHT22;1564;49.234;8.554;2023-08-06T10:23:07;15.10;99.90
3108;DHT22;1564;49.234;8.554;2023-08-06T10:25:34;15.10;99.90
3108;DHT22;1564;49.234;8.554;2023-08-06T10:28:07;15.20;99.90
3108;DHT22;1564;49.234;8.554;2023-08-06T10:30:34;15.10;99.90
3108;DHT22;1564;49.234;8.554;2023-08-06T10:33:09;15.10;99.90
3108;DHT22;1564;49.234;8.554;2023-08-06T10:35:51;15.20;99.90
3108;DHT22;1564;49.234;8.554;2023-08-06T10:38:24;15.20;77.30
3108;DHT22;1564;49.234;8.554;2023-08-06T10:41:06;15.30;37.20
3108;DHT22;1564;49.234;8.554;2023-08-06T10:43:51;14.80;99.90
3108;DHT22;1564;49.234;8.554;2023-08-06T10:46:26;14.50;99.90
3108;DHT22;1564;49.234;8.554;2023-08-06T10:48:56;14.40;78.90
3108;DHT22;1564;49.234;8.554;2023-08-06T10:51:25;14.30;99.90
3108;DHT22;1564;49.234;8.554;2023-08-06T10:53:51;14.30;1.00
3108;DHT22;1564;49.234;8.554;2023-08-06T10:56:24;14.30;1.00
3108;DHT22;1564;49.234;8.554;2023-08-06T10:58:57;14.20;1.00
3108;DHT22;1564;49.234;8.554;2023-08-06T11:01:32;14.20;99.90
3108;DHT22;1564;49.234;8.554;2023-08-06T11:04:02;15.10;1.00
3108;DHT22;1564;49.234;8.554;2023-08-06T11:06:28;14.80;1.00
3108;DHT22;1564;49.234;8.554;2023-08-06T11:09:01;14.80;1.00
3108;DHT22;1564;49.234;8.554;2023-08-06T11:11:27;14.80;1.00
3108;DHT22;1564;49.234;8.554;2023-08-06T11:13:54;14.70;1.00
3108;DHT22;1564;49.234;8.554;2023-08-06T11:16:24;14.70;1.00
3108;DHT22;1564;49.234;8.554;2023-08-06T11:18:50;14.70;1.00
3108;DHT22;1564;49.234;8.554;2023-08-06T11:21:22;14.60;1.00
3108;DHT22;1564;49.234;8.554;2023-08-06T11:23:50;14.60;1.00
3108;DHT22;1564;49.234;8.554;2023-08-06T11:26:20;14.60;1.00
3108;DHT22;1564;49.234;8.554;2023-08-06T11:28:46;14.60;1.00
3108;DHT22;1564;49.234;8.554;2023-08-06T11:31:21;14.60;1.00
3108;DHT22;1564;49.234;8.554;2023-08-06T11:33:52;14.60;1.00
3108;DHT22;1564;49.234;8.554;2023-08-06T11:36:32;14.60;1.00
3108;DHT22;1564;49.234;8.554;2023-08-06T11:38:59;14.60;1.00
3108;DHT22;1564;49.234;8.554;2023-08-06T11:41:25;14.70;1.00
3108;DHT22;1564;49.234;8.554;2023-08-06T11:44:01;14.70;1.00
3108;DHT22;1564;49.234;8.554;2023-08-06T11:46:50;14.80;1.00
3108;DHT22;1564;49.234;8.554;2023-08-06T11:49:15;14.70;1.00
3108;DHT22;1564;49.234;8.554;2023-08-06T11:51:41;14.80;1.00
3108;DHT22;1564;49.234;8.554;2023-08-06T11:54:30;14.50;1.00
3108;DHT22;1564;49.234;8.554;2023-08-06T11:57:07;14.60;1.00
3108;DHT22;1564;49.234;8.554;2023-08-06T11:59:33;14.70;99.90
3108;DHT22;1564;49.234;8.554;2023-08-06T12:02:03;14.70;1.00
3108;DHT22;1564;49.234;8.554;2023-08-06T12:07:17;14.70;99.90
